Tiempo atmosférico en la estación meteorológica de Asturias Aeropuerto, Asturias (127 m.)



Fecha
DESCASC
Temp. máxima en grados centígrados (hora)
DESCASC
Temp. mínima en grados centígrados (hora)
DESCASC
Temp. media en grados centígrados
DESCASC
Racha de viento máxima en m/sg (hora)
DESCASC
Velocidad máxima media en intervalos de 10 minutos(hora)
DESCASC
Precipitaciones diarias en mm
DESCASC
Precipitaciones de 00:00 a 06:00 en mm
DESCASC
Precipitaciones de 06:00 a 12:00 en mm
DESCASC
Precipitaciones de 12:00 a 18:00 en mm
DESCASC
Precipitaciones de 18:00 a 24:00 en mm
DESCASC
22-01-2020 10.2 (07:30) 4.1 (23:50) 7.1 8.33 (07:20) 5 (07:50) 11.4 0 2.8 6.5 2.1
21-01-2020 8.4 (12:20) 5.1 (03:20) 6.7 11.67 (13:20) 6.94 (13:20) 3.4 1.6 0.1 1.7 0
20-01-2020 8.9 (12:50) 5.6 (11:40) 7.2 18.06 (02:10) 10.83 (09:50) 0.1 0 0.1 0 0
19-01-2020 10.5 (14:10) 6.7 (00:00) 8.6 16.94 (23:40) 8.89 (23:59) 5 4.9 0.1 0 0
18-01-2020 11.7 (12:50) 6.2 (00:00) 8.9 16.94 (16:00) 11.39 (16:00) 6.6 0 0 6.6 0
17-01-2020 12.8 (14:40) 6 (00:00) 9.4 16.94 (08:00) 9.72 (02:20) 1.3 1 0.3 0 0
16-01-2020 20.3 (15:00) 8.2 (00:00) 14.2 17.5 (19:20) 12.22 (19:20) -- 0 -- -- 4.7
15-01-2020 15.8 (07:20) 5.8 (00:00) 10.8 16.94 (07:50) 12.22 (08:00) 2.4 0 2.4 0 0
14-01-2020 17.5 (16:20) 10.3 (00:00) 13.9 15.28 (02:10) 7.78 (00:10) 1 0 1 0 0
13-01-2020 18.2 (14:30) 6.6 (00:00) 12.4 12.78 (23:59) 7.5 (23:59) 0 0 0 0 0
12-01-2020 15.6 (14:10) 3.7 (00:00) 9.7 8.89 (05:50) 6.11 (07:50) 0 0 0 0 0
11-01-2020 11.6 (14:50) 2.9 (00:00) 7.3 8.89 (07:40) 6.39 (07:30) 0 0 0 0 0
10-01-2020 11.6 (14:50) 5.3 (00:00) 8.5 16.11 (02:00) 10 (02:00) 1.8 0.1 1.6 0.1 0
09-01-2020 20.2 (12:40) 8.7 (00:00) 14.5 24.17 (14:00) 14.72 (14:50) 4.4 0 0 2.6 1.8
08-01-2020 17.7 (14:20) 8.9 (00:00) 13.3 8.33 (02:00) 5.83 (08:30) 0 0 0 0 0
07-01-2020 13.3 (14:10) 4.3 (00:00) 8.8 8.89 (00:40) 6.39 (05:10) 0 0 0 0 0
06-01-2020 12.3 (16:20) 2.8 (00:00) 7.6 7.78 (09:00) 5 (09:00) 0 0 0 0 0
05-01-2020 11.8 (14:20) 4.7 (00:00) 8.3 7.22 (12:30) -- (--) 0 0 0 0 0
04-01-2020 11.1 (16:10) 5.6 (00:00) 8.4 7.22 (16:30) 4.44 (17:30) 2.3 0 1.8 0.5 0
03-01-2020 14 (14:50) 6.3 (00:00) 10.2 10.28 (01:00) 6.94 (01:20) 0.4 0 0.3 0 0.1
02-01-2020 11.4 (14:20) 3.2 (00:00) 7.3 8.89 (23:00) 5 (00:20) 0 0 0 0 0
01-01-2020 11 (13:30) 3.8 (00:00) 7.4 7.78 (07:50) 5 (09:30) 0 0 0 0 0
31-12-2019 14 (14:10) 4.8 (00:00) 9.4 8.89 (06:50) 5.56 (08:10) 0 0 0 0 0
30-12-2019 15.6 (13:40) 5.8 (00:00) 10.7 9.72 (11:50) 6.67 (03:40) 0 0 0 0 0
29-12-2019 16.7 (14:50) 5.1 (00:00) 10.9 10.83 (07:40) 6.67 (06:10) 0 0 0 0 0
28-12-2019 14.2 (15:20) 2.2 (00:00) 8.2 9.17 (03:40) 6.11 (03:40) -- 0 0 -- 0
27-12-2019 12.5 (15:20) 3.1 (00:00) 7.8 9.72 (07:40) 6.39 (06:30) 0 0 0 0 0
26-12-2019 16.7 (00:30) 5.9 (00:00) 11.3 18.06 (00:50) 9.72 (02:50) 0 0 0 0 0
25-12-2019 18.1 (23:20) 10.7 (00:00) 14.4 10.83 (23:59) 6.11 (23:59) 0 0 0 0 0
24-12-2019 19.2 (11:50) 10.5 (00:00) 14.9 9.72 (05:10) 6.11 (00:10) 0 0 0 0 0

Gráficas

Temp. máximas Temp. mínimas Temp. medias Precipitaciones Rachas de viento máximas Velocidades máximas media en intervalos de 10 minutos

Datos horarios

Fecha y hora oficial Temperatura (ºC) Velocidad del viento (km/h) Dirección del viento Racha (km/h) Dirección de racha Precipitación (mm) Presión (hPa) Tendencia (hPa) Humedad (%)
2020-01-22 23:00:00 4.8 11 Sudeste -- -- 0 1004.9 -0.2 100
2020-01-22 22:00:00 6 -- -- -- -- 0 1005.1 -0.4 100
2020-01-22 21:00:00 7.7 6 Sudeste 9 Este 0 1005.3 -0.4 100
2020-01-22 20:00:00 7.7 3 Sudoeste 8 Sur 0.7 1005.1 -0.8 100
2020-01-22 19:00:00 7.9 5 Este 9 Sudeste 1.4 1005.5 -1.1 100
2020-01-22 18:00:00 8.3 6 Sudeste 11 Sudeste 2.3 1005.7 -1.9 99
2020-01-22 17:00:00 8.5 6 Sudeste 15 Sudeste 0.3 1005.9 -2.3 99
2020-01-22 16:00:00 8.5 14 Sudeste 18 Sudeste 0.4 1006.6 -2.2 99
2020-01-22 15:00:00 8.5 13 Sudeste 18 Sudeste 1.8 1007.6 -1.9 100
2020-01-22 14:00:00 8.8 9 Sudeste 15 Sudeste 1.2 1008.2 -1.3 100
2020-01-22 13:00:00 8.6 12 Sudeste 24 Sudeste 0.5 1008.8 -0.7 100
2020-01-22 12:00:00 8.7 15 Sudeste 21 Sudeste 0.9 1009.5 0 99
2020-01-22 11:00:00 8.7 8 Este 17 Este 0.6 1009.5 0 98
2020-01-22 10:00:00 8.7 12 Sudeste 17 Sudeste 0.6 1009.5 0 98
2020-01-22 09:00:00 9.1 10 Este 26 Este 0.7 1009.5 -0.5 94
2020-01-22 08:00:00 9.6 16 Sudeste 30 Este 0 1009.5 -1 87
2020-01-22 07:00:00 9 13 Este 24 Este 0 1009.5 -1.5 97
2020-01-22 06:00:00 7.9 11 Sudeste 15 Este 0 1010 -1.8 99
2020-01-22 05:00:00 8 11 Este 21 Este 0 1010.5 -2 98
2020-01-22 04:00:00 7.6 14 Este 21 Este 0 1011 -2.1 100
2020-01-22 03:00:00 6.9 13 Sudeste 21 Este 0 1011.8 -1.8 100
2020-01-22 02:00:00 6.7 11 Este 17 Sudeste 0 1012.5 -1.1 99
2020-01-22 01:00:00 6 9 Sudeste 17 Sudeste 0 1013.1 -0.4 96
2020-01-22 00:00:00 6.7 13 Sudeste 18 Sudeste 0 1013.6 0.1 91
2020-01-21 23:00:00 6.6 12 Sudeste 18 Este 0 1013.6 0.2 89
2020-01-21 22:00:00 6.7 11 Sudeste 22 Este 0 1013.5 0 87
2020-01-21 21:00:00 6.7 15 Sudeste 28 Sudeste 0 1013.5 0.1 85
2020-01-21 20:00:00 6.8 18 Este 30 Este 0 1013.4 -0.1 82
2020-01-21 19:00:00 6.8 20 Este 32 Este 0 1013.5 -0.1 82
2020-01-21 18:00:00 6.9 14 Este 26 Este 0 1013.4 -0.6 86
2020-01-21 17:00:00 6.9 15 Este 32 Este 0.4 1013.5 -1.3 94
2020-01-21 16:00:00 6.6 14 Sudeste 26 Sudeste 0.6 1013.6 -1.9 96
2020-01-21 15:00:00 6.9 12 Sudeste 30 Sudeste 0.6 1014 -2.1 94
2020-01-21 14:00:00 6.9 19 Sudeste 42 Este 0.1 1014.8 -1.6 93
2020-01-21 13:00:00 8.3 15 Este 39 Este 0 1015.5 -1.1 73
2020-01-21 12:00:00 8.2 19 Este 32 Este 0 1016.1 -0.5 75
2020-01-21 11:00:00 6.7 9 Este 15 Este 0 1016.4 -0.4 83
2020-01-21 10:00:00 5.9 9 Sudeste 15 Sudeste 0 1016.6 -0.4 88
2020-01-21 09:00:00 5.6 9 Sudeste 13 Sudeste 0 1016.6 -0.6 89
2020-01-21 08:00:00 5.6 8 Sudeste 13 Sudeste 0 1016.8 -0.6 91
2020-01-21 07:00:00 5.5 11 Sudeste 15 Sudeste 0.1 1017 -0.8 93
2020-01-21 06:00:00 5.4 11 Sudeste 18 Sudeste 0.1 1017.2 -1.2 93
2020-01-21 05:00:00 5.1 12 Sudeste 21 Sudeste 0.2 1017.4 -1.1 96
2020-01-21 04:00:00 5.1 12 Sudeste 17 Sudeste 0.8 1017.8 -1.2 93
2020-01-21 03:00:00 5.3 15 Sudeste 26 Sur 0.4 1018.4 -0.8 88
2020-01-21 02:00:00 5.3 9 Sur 18 Sur 0.1 1018.5 -0.9 85
2020-01-21 01:00:00 5.4 12 Sur 18 Sur 0 1019 -0.7 82
2020-01-21 00:00:00 5.7 14 Sudeste 26 Sudeste 0 1019.2 -0.6 77
2020-01-20 23:00:00 6 11 Sudeste 24 Este 0 1019.4 -0.5 67
2020-01-20 22:00:00 6.8 14 Este 26 Este 0 1019.7 0.3 63
2020-01-20 21:00:00 6.8 13 Este 30 Este 0 1019.8 0.8 59
2020-01-20 20:00:00 6.6 12 Este 30 Este 0 1019.9 0.8 59
2020-01-20 19:00:00 6.6 14 Este 32 Este 0 1019.4 0.3 61
2020-01-20 18:00:00 6.9 14 Este 41 Este 0 1019 -0.4 61
2020-01-20 17:00:00 7 18 Este 42 Este 0 1019.1 -0.8 65
2020-01-20 16:00:00 7.8 26 Este 54 Este 0 1019.1 -1.7 57
2020-01-20 15:00:00 8.1 30 Este 58 Este 0 1019.4 -2.5 56
2020-01-20 14:00:00 8.3 32 Este 52 Este 0 1019.9 -1.7 60
2020-01-20 13:00:00 8.6 29 Este 52 Este 0 1020.8 -0.5 56
2020-01-20 12:00:00 6.1 24 Este 52 Sudeste 0 1021.9 1 71
2020-01-20 11:00:00 6.7 25 Este 63 Nordeste 0 1021.6 1 65
2020-01-20 10:00:00 6.8 26 Este 61 Este 0 1021.3 0.9 62
2020-01-20 09:00:00 6.2 29 Este 58 Este 0.1 1020.9 0.5 75
2020-01-20 08:00:00 7.3 24 Este 50 Nordeste 0 1020.6 -0.3 60
2020-01-20 07:00:00 6.4 22 Este 48 Este 0 1020.4 -0.9 69
2020-01-20 06:00:00 7.2 24 Este 55 Este 0 1020.4 -1.4 65
2020-01-20 05:00:00 6.5 23 Este 54 Este 0 1020.9 -1.7 71
2020-01-20 04:00:00 6.8 22 Este 45 Este 0 1021.3 -1.9 69
2020-01-20 03:00:00 6.4 23 Este 65 Este 0 1021.8 -1.3 70
2020-01-20 02:00:00 6.9 30 Este 58 Este 0 1022.6 -0.8 69
2020-01-20 01:00:00 8.2 32 Este 54 Este 0 1023.2 -0.1 60
2020-01-20 00:00:00 7.7 32 Este 61 Este 0 1023.1 -0.3 62
2020-01-19 23:00:00 7.6 24 Este 52 Este 0 1023.4 0.5 67
2020-01-19 22:00:00 8.3 26 Este 46 Este 0 1023.3 0.9 58
2020-01-19 21:00:00 8.2 23 Este 48 Este 0 1023.4 1.1 60
2020-01-19 20:00:00 8.1 20 Este 41 Este 0 1022.9 1 60
2020-01-19 19:00:00 8 20 Este 42 Este 0 1022.4 0.7 61
2020-01-19 18:00:00 8.4 21 Este 45 Este 0 1022.3 0.6 58
2020-01-19 17:00:00 9.1 28 Este 45 Este 0 1021.9 0 61
2020-01-19 16:00:00 9.1 22 Este 46 Este 0 1021.7 -0.7 61
2020-01-19 15:00:00 9.7 21 Este 42 Este 0 1021.7 -0.7 62
2020-01-19 14:00:00 9.9 22 Este 41 Este 0 1021.9 0.4 59
2020-01-19 13:00:00 9.3 20 Este 37 Este 0 1022.4 1.7 65
2020-01-19 12:00:00 9.6 22 Este 45 Nordeste 0 1022.4 3.2 64
2020-01-19 11:00:00 8.8 28 Este 58 Nordeste 0.1 1021.5 3.7 68
2020-01-19 10:00:00 9 23 Nordeste 41 Nordeste 0 1020.7 4.2 71
2020-01-19 09:00:00 9.3 18 Este 39 Nordeste 0 1019.2 3.7 65
2020-01-19 08:00:00 9.2 20 Este 48 Este 0 1017.8 3.5 66
2020-01-19 07:00:00 9.3 22 Este 45 Este 0 1016.5 3.1 67
2020-01-19 06:00:00 9.6 26 Nordeste 46 Este 0 1015.5 3.6 70
2020-01-19 05:00:00 9.6 21 Este 50 Este 0 1014.3 4.2 74
2020-01-19 04:00:00 9.7 25 Nordeste 50 Nordeste 0 1013.4 5.1 75
2020-01-19 03:00:00 9.2 27 Este 54 Nordeste 0.1 1011.9 4.7 86
2020-01-19 02:00:00 9.1 21 Nordeste 46 Nordeste 4.8 1010.1 4 97
2020-01-19 01:00:00 8.9 13 Oeste 24 Sudoeste 0 1008.3 2.6 77
2020-01-19 00:00:00 9.1 12 Sudoeste 24 Sudoeste 0 1007.2 2.1 78
2020-01-18 23:00:00 9.3 12 Sudoeste 41 Oeste 0 1006.1 1.5 78
2020-01-18 22:00:00 10.1 22 Oeste 42 Oeste 0 1005.7 1.5 72
2020-01-18 21:00:00 9.5 18 Oeste 41 Oeste 0 1005.1 0.8 73
2020-01-18 20:00:00 8.9 16 Oeste 37 Sudoeste 0 1004.6 1.2 77
2020-01-18 19:00:00 9.4 17 Sudoeste 45 Oeste 0 1004.2 1.3 74
2020-01-18 18:00:00 9.4 32 Oeste 59 Oeste 0 1004.3 2.1 80
2020-01-18 17:00:00 11.6 21 Oeste 45 Oeste 0 1003.4 2.9 67
2020-01-18 16:00:00 11.6 41 Oeste 61 Oeste 0 1002.9 1.1 70
2020-01-18 15:00:00 9.2 21 Oeste 46 Oeste 5.9 1002.2 -1 95
2020-01-18 14:00:00 10.6 6 Oeste 17 Sur 0.7 1000.5 -2.9 80
2020-01-18 13:00:00 11.5 6 Sudeste 13 Sudeste 0 1001.8 -2.3 69
2020-01-18 12:00:00 9.9 0 Calma 17 Sudeste 0 1003.2 -1.9 74
2020-01-18 11:00:00 9.2 11 Sudeste 15 Sudeste 0 1003.4 -3.2 73
2020-01-18 10:00:00 7.8 4 Sur 21 Sudoeste 0 1004.1 -3.6 75
2020-01-18 09:00:00 7.1 12 Sudoeste 24 Sur 0 1005.1 -3.5 77
2020-01-18 08:00:00 7.2 11 Sur 17 Sudoeste 0 1006.6 -3.2 76
2020-01-18 07:00:00 6.9 5 Sudeste 13 Sudoeste 0 1007.7 -3.2 81
2020-01-18 06:00:00 6.7 8 Sur 17 Sudoeste 0 1008.6 -3.5 80
2020-01-18 05:00:00 6.5 6 Sur 21 Sudoeste 0 1009.8 -2.8 80
2020-01-18 04:00:00 6.7 11 Sudeste 13 Sudeste 0 1010.9 -2.8 83
2020-01-18 03:00:00 7 12 Sur 15 Sudoeste 0 1012.1 -2.1 80
2020-01-18 02:00:00 6.8 9 Sudeste 17 Sudeste 0 1012.6 -2.3 83
2020-01-18 01:00:00 7.2 6 Sur 21 Sur 0 1013.7 -1.6 81
2020-01-18 00:00:00 7.2 10 Sudoeste 15 Sur 0 1014.2 -1.6 83
2020-01-17 23:00:00 7.1 8 Sur 11 Sur 0 1014.9 -0.8 84
2020-01-17 22:00:00 6.1 9 Sudeste -- -- 0 1015.3 -0.6 88
2020-01-17 21:00:00 6.5 6 Sur 11 Sur 0 1015.8 0.1 88
2020-01-17 20:00:00 6.3 3 Sudeste 8 Sudeste 0 1015.7 0.2 88
2020-01-17 19:00:00 7.8 3 Sur 13 Oeste 0 1015.9 1.1 80
2020-01-17 18:00:00 9.3 10 Oeste 35 Oeste 0 1015.7 1.2 75
2020-01-17 17:00:00 10 27 Oeste 45 Oeste 0 1015.5 0.8 72
2020-01-17 16:00:00 10.8 22 Oeste 39 Oeste 0 1014.8 0 67
2020-01-17 15:00:00 12.2 24 Oeste 37 Oeste 0 1014.5 -0.3 60
2020-01-17 14:00:00 11.8 19 Oeste 37 Oeste 0 1014.7 0.5 55
2020-01-17 13:00:00 11.3 20 Sudoeste 32 Sudoeste 0 1014.8 1.8 60
2020-01-17 12:00:00 10.1 18 Sudoeste 42 Oeste 0.2 1014.8 2.9 66
2020-01-17 11:00:00 8.6 22 Oeste 35 Oeste 0 1014.2 3.4 72
2020-01-17 10:00:00 8.7 13 Sudoeste 32 Oeste 0 1013 3.6 70
2020-01-17 09:00:00 7.9 18 Sudoeste 46 Oeste 0.1 1011.9 3.3 75
2020-01-17 08:00:00 9 24 Oeste 61 Oeste 0 1010.8 3 68
2020-01-17 07:00:00 8.9 15 Sudoeste 26 Oeste 0 1009.4 2.2 68
2020-01-17 06:00:00 9.6 21 Sudoeste 32 Sudoeste 0 1008.6 2 69
2020-01-17 05:00:00 9.9 19 Oeste 37 Oeste 0 1007.8 2.1 68
2020-01-17 04:00:00 9.9 17 Sudoeste 55 Oeste 0.2 1007.2 2.1 71
2020-01-17 03:00:00 9.8 30 Oeste 59 Oeste 0.8 1006.6 2.4 77
2020-01-17 02:00:00 11.6 13 Sudoeste 46 Oeste 0 1005.7 2 62
2020-01-17 01:00:00 12.1 22 Oeste 37 Oeste 0 1005.1 2.5 58
2020-01-17 00:00:00 11.7 19 Sudoeste 32 Sudoeste 0 1004.2 1.8 64
2020-01-16 23:00:00 11.2 10 Sudoeste 42 Sudoeste 0 1003.7 1.5 70
2020-01-16 22:00:00 10.7 25 Sudoeste 39 Sur 0 1002.6 0.8 74
2020-01-16 21:00:00 10.3 18 Oeste 26 Oeste 0.3 1002.4 2.5 87
2020-01-16 20:00:00 10 17 Oeste 63 Oeste 2.6 1002.2 3.3 91
2020-01-16 19:00:00 11.5 24 Noroeste 42 Oeste 1.8 1001.8 3.4 99
2020-01-16 18:00:00 12.2 12 Noroeste 18 Noroeste 0 999.9 1.4 89
2020-01-16 17:00:00 14.7 12 Noroeste 24 Noroeste 0 998.9 0.1 70
2020-01-16 16:00:00 18.8 14 Sudoeste 37 Sudoeste 0 998.4 -1.3 42
2020-01-16 15:00:00 20.2 15 Sudoeste 42 Sudoeste 0 998.5 -2 41
2020-01-16 14:00:00 19.1 4 Sudoeste 24 Sur 0 998.8 -2.2 50
2020-01-16 13:00:00 19.2 14 Sudeste 22 Sur -- 999.7 -1.5 49
2020-01-16 12:00:00 19.8 13 Sur 26 Sudeste -- 1000.5 -0.1 46
2020-01-16 11:00:00 17.9 6 Sur 13 Sur 0 1001 0.2 53
2020-01-16 10:00:00 14.2 8 Sudoeste 21 Sur 0 1001.2 0.9 61
2020-01-16 09:00:00 14.7 10 Sur 21 Sur 0 1000.6 0 58
2020-01-16 08:00:00 13.6 13 Sur 30 Sudoeste 0 1000.8 -0.1 59
2020-01-16 07:00:00 12.1 15 Sur 21 Sur 0 1000.3 -1.5 64
2020-01-16 06:00:00 10.9 12 Sur 18 Sudoeste 0 1000.6 -1.6 71
2020-01-16 05:00:00 11 10 Sur 21 Sudeste 0 1000.9 -1.6 71
2020-01-16 04:00:00 8.8 8 Sur 21 Sudoeste 0 1001.8 -1.1 83
2020-01-16 03:00:00 10 16 Sudoeste 26 Sudoeste 0 1002.2 -1.2 80
2020-01-16 02:00:00 8.5 9 Sur 28 Sur 0 1002.5 -1.4 90
2020-01-16 01:00:00 8.6 9 Sur 22 Sudoeste 0 1002.9 -1.6 91
2020-01-16 00:00:00 8.2 15 Sur 24 Sur 0 1003.4 -1.8 98
2020-01-15 23:00:00 7.5 7 Sur 17 Sur 0 1003.9 -1.5 99
2020-01-15 22:00:00 6.1 11 Sudeste 13 Sudeste 0 1004.5 -0.9 98
2020-01-15 21:00:00 6.9 10 Sudeste 15 Sudeste 0 1005.2 0 97
2020-01-15 20:00:00 7.4 11 Sudeste 18 Este 0 1005.4 0.3 93
2020-01-15 19:00:00 9.1 14 Sudeste 17 Este 0 1005.4 1 87
2020-01-15 18:00:00 10.3 10 Este 15 Este 0 1005.2 1.7 78
2020-01-15 17:00:00 11.6 5 Este 9 Este 0 1005.1 1.6 76
2020-01-15 16:00:00 12.2 2 Este 11 Noroeste 0 1004.4 0.9 78
2020-01-15 15:00:00 12.5 6 Noroeste 17 Noroeste 0 1003.5 -0.1 83
2020-01-15 14:00:00 12.8 6 Noroeste 18 Oeste 0 1003.5 1.1 81
2020-01-15 13:00:00 12.1 13 Oeste 21 Oeste 0 1003.5 2.5 90
2020-01-15 12:00:00 10.1 18 Oeste 32 Oeste 0 1003.6 3.7 99
2020-01-15 11:00:00 10.5 20 Oeste 30 Oeste 0 1002.4 4.5 94
2020-01-15 10:00:00 10.4 6 Noroeste 32 Oeste 1.2 1001 6.4 99
2020-01-15 09:00:00 10.4 29 Oeste 54 Oeste 1.2 999.9 5.9 97
2020-01-15 08:00:00 11.1 44 Oeste 61 Noroeste 0 997.9 4.3 89
2020-01-15 07:00:00 15.4 27 Sudoeste 41 Sudoeste 0 994.6 1.1 50
2020-01-15 06:00:00 11.3 6 Sur 17 Sudeste 0 994 0.3 64
2020-01-15 05:00:00 11.7 10 Sur 18 Sudeste 0 993.6 0.3 62
2020-01-15 04:00:00 14.4 9 Sudeste 17 Sur 0 993.5 -0.6 51
2020-01-15 03:00:00 10.6 7 Sur 17 Sur 0 993.7 -0.9 65
2020-01-15 02:00:00 13.5 11 Sudoeste 18 Sur 0 993.3 -1.3 51
2020-01-15 01:00:00 12 8 Sur 21 Sur 0 994.1 -1.5 56
2020-01-15 00:00:00 11.1 10 Sur 18 Nordeste 0 994.6 -1.9 60
2020-01-14 23:00:00 12.1 8 Norte 24 Sur 0 994.6 -1.9 55
2020-01-14 22:00:00 11.6 11 Sudeste 17 Sudeste 0 995.6 -0.9 56
2020-01-14 21:00:00 11.4 9 Sudeste 22 Sudoeste 0 996.5 0.8 60
2020-01-14 20:00:00 10.5 9 Sudeste 13 Sudeste 0 996.5 1 67
2020-01-14 19:00:00 10.9 7 Sudeste 13 Sur 0 996.5 0.8 68
2020-01-14 18:00:00 14 9 Sudeste 15 Sudeste 0 995.7 -0.1 56
2020-01-14 17:00:00 16.4 6 Este 15 Sudeste 0 995.5 -0.8 51
2020-01-14 16:00:00 16.4 4 Este 15 Sur 0 995.7 -1.7 56
2020-01-14 15:00:00 14.2 4 Sur 11 Sur 0 995.8 -1.8 69
2020-01-14 14:00:00 15.2 5 Sur 13 Sudoeste 0 996.3 -0.9 60
2020-01-14 13:00:00 13.2 2 Sur 13 Sudoeste 0 997.4 0.6 81
2020-01-14 12:00:00 12.6 5 Sudeste 9 Sudeste 0 997.6 1 82
2020-01-14 11:00:00 12.3 8 Sudeste 11 Sudeste 0 997.2 0.5 88
2020-01-14 10:00:00 11.8 2 Sudeste 15 Sudeste 0.1 996.8 0.3 78
2020-01-14 09:00:00 10.6 12 Sudeste 15 Sudeste 0.3 996.6 0.5 92
2020-01-14 08:00:00 11.1 10 Sudeste 15 Sudeste 0.6 996.7 0.6 86
2020-01-14 07:00:00 13.6 9 Sur 17 Sudeste 0 996.5 0.1 62
2020-01-14 06:00:00 15.3 3 Sudeste 18 Oeste 0 996.1 -0.2 48
2020-01-14 05:00:00 15.6 5 Sudoeste 22 Sur 0 996.1 -1 44
2020-01-14 04:00:00 15.8 10 Sur 55 Sudoeste 0 996.4 -1.3 43
2020-01-14 03:00:00 15.7 21 Sudoeste 55 Sudoeste 0 996.3 -2.2 42
2020-01-14 02:00:00 15.6 24 Sudoeste 52 Oeste 0 997.1 -1.3 40
2020-01-14 01:00:00 15.4 21 Oeste 48 Oeste 0 997.7 -0.7 40
2020-01-14 00:00:00 15.4 27 Oeste 46 Oeste 0 998.5 -0.6 40
2020-01-13 23:00:00 15.4 22 Oeste 41 Sudoeste 0 998.4 -0.8 41
2020-01-13 22:00:00 15.7 17 Sudoeste 42 Sudoeste 0 998.4 -1 39
2020-01-13 21:00:00 15.6 17 Sudoeste 35 Sudoeste 0 999.1 -0.3 41
2020-01-13 20:00:00 15.4 14 Sudoeste 30 Sudoeste 0 999.2 -0.1 40
2020-01-13 19:00:00 14.7 13 Oeste 24 Oeste 0 999.4 -0.2 44
2020-01-13 18:00:00 13.3 6 Noroeste 21 Sudoeste 0 999.4 -0.7 59
2020-01-13 17:00:00 16.2 8 Sudoeste 21 Sudoeste 0 999.3 -1.8 43
2020-01-13 16:00:00 15.2 2 Sudeste 18 Oeste 0 999.6 -3 55
2020-01-13 15:00:00 17.3 6 Sudoeste 17 Sudoeste 0 1000.1 -3.8 46
2020-01-13 14:00:00 16.3 10 Sur 30 Sudoeste 0 1001.1 -4.1 48
2020-01-13 13:00:00 15.2 13 Sudoeste 26 Sudoeste 0 1002.6 -3.1 51
2020-01-13 12:00:00 12.2 14 Sudoeste 28 Sudoeste 0 1003.9 -1.7 58
2020-01-13 11:00:00 8.7 19 Sudoeste 28 Sudoeste 0 1005.2 -0.9 66
2020-01-13 10:00:00 7.8 17 Sudoeste 33 Sur 0 1005.7 -0.4 69
2020-01-13 09:00:00 7.3 17 Sudoeste 26 Sudoeste 0 1005.6 -1.7 68
2020-01-13 08:00:00 7.5 12 Sudoeste 21 Sudoeste 0 1006.1 -1.9 69
2020-01-13 07:00:00 8.1 14 Sur 28 Sur 0 1006.1 -2.6 69
2020-01-13 06:00:00 8.9 12 Sudoeste 21 Sudoeste 0 1007.3 -2 64
2020-01-13 05:00:00 8.2 15 Sudoeste 24 Sudoeste 0 1008 -2.2 68
2020-01-13 04:00:00 8.2 17 Sudoeste 26 Sudoeste 0 1008.7 -2.3 70
2020-01-13 03:00:00 8.2 14 Sudoeste 22 Sudoeste 0 1009.3 -2.5 73
2020-01-13 02:00:00 8.4 10 Sudoeste 22 Sudoeste 0 1010.2 -2 72
2020-01-13 01:00:00 8.4 16 Sudoeste 28 Sudoeste 0 1011 -1.8 74
2020-01-13 00:00:00 8.2 16 Sudoeste 28 Sudoeste 0 1011.8 -1.5 75
2020-01-12 23:00:00 8.3 15 Sur 26 Sudoeste 0 1012.2 -1.6 74
2020-01-12 22:00:00 8 12 Sur 17 Sur 0 1012.8 -1 76
2020-01-12 21:00:00 7.6 7 Sur -- -- 0 1013.3 -0.5 75
2020-01-12 20:00:00 8.7 10 Sudeste -- -- 0 1013.8 0 77
2020-01-12 19:00:00 9.4 5 Sudeste 9 Sudeste 0 1013.8 0.1 73
2020-01-12 18:00:00 10.6 5 Este 9 Nordeste 0 1013.8 -0.4 57
2020-01-12 17:00:00 11.9 4 Este 9 Nordeste 0 1013.8 -0.6 64
2020-01-12 16:00:00 13.9 5 Este 9 Este 0 1013.7 -1.7 54
2020-01-12 15:00:00 13.9 4 Norte 9 Nordeste 0 1014.2 -1.8 50
2020-01-12 14:00:00 15.2 3 Sudoeste 15 Sur 0 1014.4 -1.5 43
2020-01-12 13:00:00 13 9 Sudoeste 21 Sudoeste 0 1015.4 -0.2 45
2020-01-12 12:00:00 10.2 13 Sudoeste 22 Sudoeste 0 1016 0.6 48
2020-01-12 11:00:00 8.8 15 Sudoeste 28 Sudoeste 0 1015.9 0.9 49
2020-01-12 10:00:00 6.3 18 Sudoeste 30 Sudoeste 0 1015.6 0.7 57
2020-01-12 09:00:00 5.4 19 Sudoeste 32 Sudoeste 0 1015.4 0.6 62
2020-01-12 08:00:00 4.4 21 Sudoeste 32 Sudoeste 0 1015 0.2 71
2020-01-12 07:00:00 4.3 21 Sudoeste 32 Sudoeste 0 1014.9 -0.1 73
2020-01-12 06:00:00 4 19 Sudoeste 32 Sudoeste 0 1014.8 -0.1 77
2020-01-12 05:00:00 4.1 18 Sudoeste 30 Sur 0 1014.8 0 80
2020-01-12 04:00:00 4.3 18 Sudoeste 28 Sur 0 1015 -0.2 81
2020-01-12 03:00:00 4.7 14 Sudoeste 28 Sur 0 1014.9 -0.6 80
2020-01-12 02:00:00 5 14 Sudoeste 24 Sur 0 1014.8 -1 80
2020-01-12 01:00:00 5.2 9 Sur 26 Sudoeste 0 1015.2 -0.8 81
2020-01-12 00:00:00 5.1 14 Sudoeste 22 Sudoeste 0 1015.5 -0.4 86
2020-01-11 23:00:00 5.9 12 Sudoeste 17 Sudoeste 0 1015.8 -0.3 82
2020-01-11 22:00:00 5.8 10 Sudoeste 15 Sudoeste 0 1016 0.3 89
2020-01-11 21:00:00 5.3 6 Sudoeste 9 Sudoeste 0 1015.9 0.8 88
2020-01-11 20:00:00 6.7 5 Oeste 8 Oeste 0 1016.1 1.1 88
2020-01-11 19:00:00 7.5 0 Calma 9 Sudeste 0 1015.7 1.1 81
2020-01-11 18:00:00 -- -- -- -- -- 0 1015.1 0.6 --
2020-01-11 17:00:00 11.1 4 Oeste 8 Oeste 0 1015 0 68
2020-01-11 16:00:00 11 0 Calma 13 Noroeste 0 1014.6 -1.3 62
2020-01-11 15:00:00 11.2 5 Noroeste 13 Sudoeste 0 1014.5 -2.3 63
2020-01-11 14:00:00 10.4 8 Oeste 22 Sudoeste 0 1015 -1.8 62
2020-01-11 13:00:00 8.3 11 Sudoeste 22 Sudoeste 0 1015.9 -0.8 64
2020-01-11 12:00:00 8.7 13 Sudoeste 28 Sur 0 1016.8 0.2 63
2020-01-11 11:00:00 6.4 19 Sudoeste 32 Sudoeste 0 1016.8 0 73
2020-01-11 10:00:00 4.3 19 Sudoeste 30 Sudoeste 0 1016.7 -0.3 80
2020-01-11 09:00:00 3.4 21 Sudoeste 30 Sudoeste 0 1016.6 -0.6 84
2020-01-11 08:00:00 3.1 23 Sudoeste 32 Sudoeste 0 1016.8 -0.8 90
2020-01-11 07:00:00 3.4 19 Sudoeste 28 Sudoeste 0 1017 -0.8 89
2020-01-11 06:00:00 3.7 18 Sudoeste 26 Sudoeste 0 1017.2 -0.6 92
2020-01-11 05:00:00 4.4 18 Sudoeste 28 Sudoeste 0 1017.6 -0.6 90
2020-01-11 04:00:00 4.3 20 Sudoeste 26 Sudoeste 0 1017.8 -1 96
2020-01-11 03:00:00 4.9 15 Sur 28 Sur 0 1017.8 -1.2 91
2020-01-11 02:00:00 5.2 17 Sudoeste 26 Sudoeste 0 1018.2 -0.5 95
2020-01-11 01:00:00 5 17 Sudoeste 26 Sudoeste 0 1018.8 0 98
2020-01-11 00:00:00 5.3 17 Sudoeste 24 Sudoeste 0 1019 0.3 98
2020-01-10 23:00:00 6.1 16 Sudoeste 22 Sudoeste 0 1018.7 0.2 97
2020-01-10 22:00:00 6.5 10 Sudoeste 15 Sudoeste 0 1018.8 0.7 96
2020-01-10 21:00:00 6.9 9 Sudoeste 13 Sudoeste 0 1018.7 0.9 95
2020-01-10 20:00:00 7.2 10 Sudoeste 13 Sur 0 1018.5 0.8 93
2020-01-10 19:00:00 7.4 7 Sudoeste 11 Sudoeste 0 1018.1 0.4 95
2020-01-10 18:00:00 8.4 2 Sur 5 Sur 0 1017.8 0.4 84
2020-01-10 17:00:00 11.1 0 Calma 5 Noroeste 0 1017.7 0.2 70
2020-01-10 16:00:00 10.8 2 Noroeste 11 Sudoeste 0.1 1017.7 -0.4 79
2020-01-10 15:00:00 11 5 Oeste 11 Sudoeste 0 1017.4 -0.7 80
2020-01-10 14:00:00 9.9 5 Sudoeste 13 Sudoeste 0 1017.5 -0.6 89
2020-01-10 13:00:00 9.3 6 Sudoeste 15 Sudoeste 0 1018.1 1.1 92
2020-01-10 12:00:00 8.7 10 Sudoeste 18 Sudoeste 0.2 1018.1 1.7 94
2020-01-10 11:00:00 8.1 9 Sudoeste 18 Sudoeste 0 1018.1 1.9 95
2020-01-10 10:00:00 7.6 10 Sudoeste 18 Sur 0.1 1017 1.1 92
2020-01-10 09:00:00 7.2 10 Sudoeste 24 Oeste 0.3 1016.4 1.5 95
2020-01-10 08:00:00 8.2 13 Oeste 26 Sudoeste 1 1016.2 1.9 88
2020-01-10 07:00:00 9 16 Oeste 33 Oeste 0 1015.9 2 85
2020-01-10 06:00:00 9.3 22 Oeste 37 Oeste 0 1014.9 1.4 77
2020-01-10 05:00:00 9.1 24 Oeste 45 Oeste 0 1014.3 1.2 77
2020-01-10 04:00:00 9.6 23 Oeste 45 Oeste 0 1013.9 1.1 70
2020-01-10 03:00:00 9.8 29 Oeste 48 Oeste 0 1013.5 0.8 67
2020-01-10 02:00:00 9.8 36 Oeste 58 Oeste 0 1013.1 0.8 68
2020-01-10 01:00:00 9.3 27 Oeste 54 Oeste 0.1 1012.8 1 73
2020-01-10 00:00:00 8.9 14 Sudoeste 50 Oeste 1.8 1012.7 1.6 80
2020-01-09 23:00:00 10.4 25 Oeste 50 Oeste 0 1012.3 2.1 63
2020-01-09 22:00:00 10.9 28 Oeste 48 Oeste 0 1011.8 2.1 59
2020-01-09 21:00:00 10.9 19 Oeste 37 Oeste 0 1011.1 2 56
2020-01-09 20:00:00 10.9 25 Oeste 48 Oeste 0 1010.2 1.6 55
2020-01-09 19:00:00 10.7 26 Oeste 42 Oeste 0 1009.7 1.9 57
2020-01-09 18:00:00 11.2 20 Oeste 50 Oeste 0 1009.1 2.6 62
2020-01-09 17:00:00 11.7 31 Oeste 65 Oeste 0 1008.6 3.5 63
2020-01-09 16:00:00 11.5 38 Oeste 74 Oeste 0.4 1007.8 4.3 72
2020-01-09 15:00:00 10.2 49 Oeste 76 Oeste 2.2 1006.5 2.9 94
2020-01-09 14:00:00 12.8 46 Oeste 87 Oeste 0 1005.1 0.3 82
2020-01-09 13:00:00 18 35 Oeste 48 Sudoeste 0 1003.5 -1.9 58
2020-01-09 12:00:00 18.8 19 Sudoeste 41 Sudoeste 0 1003.6 -1.7 50
2020-01-09 11:00:00 17.1 8 Sudoeste 37 Sudoeste 0 1004.8 -1.1 55
2020-01-09 10:00:00 15.8 7 Sudoeste 24 Sudoeste 0 1005.4 -0.7 58
2020-01-09 09:00:00 13.5 16 Sudoeste 24 Sudoeste 0 1005.3 -2 66
2020-01-09 08:00:00 13.1 12 Sudoeste 33 Sudoeste 0 1005.9 -1.4 69
2020-01-09 07:00:00 13.4 18 Sudoeste 30 Sudoeste 0 1006.1 -2.1 68
2020-01-09 06:00:00 12.9 9 Sudoeste 28 Sudoeste 0 1007.3 -1.3 73
2020-01-09 05:00:00 12.7 16 Sudoeste 24 Sudoeste 0 1007.3 -1.9 72
2020-01-09 04:00:00 12.4 17 Sudoeste 24 Sudoeste 0 1008.2 -1.7 69
2020-01-09 03:00:00 10.8 17 Sudoeste 28 Sur 0 1008.6 -1.7 69
2020-01-09 02:00:00 11.1 12 Sudoeste 18 Sudoeste 0 1009.2 -2.3 64
2020-01-09 01:00:00 11.3 11 Sudoeste 24 Sudoeste 0 1009.9 -1.9 62
2020-01-09 00:00:00 11.3 12 Sur 22 Sur 0 1010.3 -1.6 60
2020-01-08 23:00:00 11.8 12 Sudoeste 17 Sudoeste 0 1011.5 -0.8 59
2020-01-08 22:00:00 11.8 12 Sudoeste 22 Sudoeste 0 1011.8 -0.4 62
2020-01-08 21:00:00 11.6 11 Sur 15 Sur 0 1011.9 -0.4 67
2020-01-08 20:00:00 10.6 9 Sudoeste 11 Sudoeste 0 1012.3 0 68
2020-01-08 19:00:00 10.7 4 Oeste 11 Noroeste 0 1012.2 0 64
2020-01-08 18:00:00 11.8 0 Calma 13 Noroeste 0 1012.3 -0.3 68
2020-01-08 17:00:00 14.8 3 Norte 11 Noroeste 0 1012.3 -0.8 60
2020-01-08 16:00:00 15.4 4 Este 8 Este 0 1012.2 -1.9 54
2020-01-08 15:00:00 16.8 6 Este 13 Sudeste 0 1012.6 -2.4 49
2020-01-08 14:00:00 17 6 Sur 22 Sur 0 1013.1 -2.1 39
2020-01-08 13:00:00 13.9 12 Sudoeste 17 Sur 0 1014.1 -0.7 46
2020-01-08 12:00:00 12.9 8 Sudoeste 21 Sudoeste 0 1015 0.4 50
2020-01-08 11:00:00 11.2 16 Sudoeste 24 Sudoeste 0 1015.2 0.4 50
2020-01-08 10:00:00 10.3 18 Sudoeste 28 Sudoeste 0 1014.8 -0.1 53
2020-01-08 09:00:00 9.5 18 Sudoeste 28 Sudoeste 0 1014.6 -0.1 54
2020-01-08 08:00:00 9.5 20 Sudoeste 26 Sudoeste 0 1014.8 0 55
2020-01-08 07:00:00 9.1 14 Sudoeste 18 Sudoeste 0 1014.9 0 58
2020-01-08 06:00:00 10 11 Sudoeste 17 Sudoeste 0 1014.7 -0.1 54
2020-01-08 05:00:00 9.9 11 Sudoeste 18 Sudoeste 0 1014.8 -0.2 55
2020-01-08 04:00:00 10.4 12 Sudoeste 26 Sudoeste 0 1014.9 -0.6 51
2020-01-08 03:00:00 9.8 14 Sudoeste 30 Sudoeste 0 1014.8 -0.8 55
2020-01-08 02:00:00 9.6 18 Sudoeste 30 Sudoeste 0 1015 -0.7 57
2020-01-08 01:00:00 9 17 Sudoeste 24 Sudoeste 0 1015.5 -0.5 59
2020-01-08 00:00:00 9.1 18 Sudoeste 26 Sudoeste 0 1015.6 -0.4 61
2020-01-07 23:00:00 9.4 17 Sudoeste 28 Sur 0 1015.7 0 62
2020-01-07 22:00:00 9.2 15 Sudoeste 24 Sudoeste 0 1016 0.2 65
2020-01-07 21:00:00 9.7 13 Sudoeste 22 Sudoeste 0 1016 0.6 64
2020-01-07 20:00:00 9.8 15 Sudoeste 22 Sudoeste 0 1015.7 0.5 66
2020-01-07 19:00:00 8.3 5 Sudoeste -- -- 0 1015.8 0.7 80
2020-01-07 18:00:00 10.4 0 Calma 8 Sur 0 1015.4 0 71
2020-01-07 17:00:00 12.1 0 Calma 5 Norte 0 1015.2 -0.9 59
2020-01-07 16:00:00 12.5 2 Nordeste 8 Este 0 1015.1 -1.5 58
2020-01-07 15:00:00 13 4 Noroeste 11 Noroeste 0 1015.4 -1.9 55
2020-01-07 14:00:00 12.7 5 Noroeste 9 Norte 0 1016.1 -1 52
2020-01-07 13:00:00 11.7 7 Sudoeste 17 Sudoeste 0 1016.6 -0.1 52
2020-01-07 12:00:00 9.2 12 Sudoeste 26 Sudoeste 0 1017.3 1.3 54
2020-01-07 11:00:00 6.7 15 Sudoeste 22 Sudoeste 0 1017.1 1.6 61
2020-01-07 10:00:00 4.9 15 Sudoeste 26 Sudoeste 0 1016.7 1.6 67
2020-01-07 09:00:00 4.4 13 Sudoeste 18 Sudoeste 0 1016 0.8 68
2020-01-07 08:00:00 4.7 12 Sudoeste 28 Sudoeste 0 1015.5 -0.1 65
2020-01-07 07:00:00 4.5 17 Sudoeste 32 Sudoeste 0 1015.1 -0.6 71
2020-01-07 06:00:00 4.9 22 Sudoeste 32 Sudoeste 0 1015.2 -0.3 68
2020-01-07 05:00:00 5.3 22 Sudoeste 32 Sudoeste 0 1015.6 0.2 70
2020-01-07 04:00:00 5.4 19 Sudoeste 30 Sudoeste 0 1015.7 -0.3 72
2020-01-07 03:00:00 5.6 21 Sudoeste 30 Sudoeste 0 1015.5 -1.1 73
2020-01-07 02:00:00 5.8 19 Sudoeste 30 Sur 0 1015.4 -1 77
2020-01-07 01:00:00 5.8 18 Sudoeste 32 Sudoeste 0 1016 -0.1 80
2020-01-07 00:00:00 5.8 16 Sudoeste 24 Sur 0 1016.6 0.6 85
2020-01-06 23:00:00 6.1 11 Sudoeste 18 Sudoeste 0 1016.4 0.6 85
2020-01-06 22:00:00 6.9 14 Sudoeste 21 Sur 0 1016.1 0.4 82
2020-01-06 21:00:00 7.4 13 Sudoeste 18 Sudoeste 0 1016 1 81
2020-01-06 20:00:00 7.5 13 Sudoeste 28 Sur 0 1015.8 1.7 81
2020-01-06 19:00:00 6.8 13 Sudeste 15 Sudeste 0 1015.7 3.6 90
2020-01-06 18:00:00 8.3 9 Sudeste 11 Sudeste 0 1015 2.9 78
2020-01-06 17:00:00 10.8 9 Nordeste 18 Norte 0 1014.1 0.9 70
2020-01-06 16:00:00 11.8 12 Sur 26 Oeste 0 1012.1 -1.6 63
2020-01-06 15:00:00 10.7 9 Sur 17 Sudoeste 0 1012.1 -1.9 66
2020-01-06 14:00:00 10.3 8 Oeste 15 Oeste 0 1013.2 -0.6 69
2020-01-06 13:00:00 9.2 8 Sudoeste 18 Sudoeste 0 1013.7 0.7 72
2020-01-06 12:00:00 9.1 9 Oeste 24 Sudoeste 0 1014 1.2 69
2020-01-06 11:00:00 6.2 12 Sudoeste 24 Sudoeste 0 1013.8 0.9 74
2020-01-06 10:00:00 3.7 17 Sudoeste 26 Sudoeste 0 1013 0.5 83